createdAt,value
2019-05-16T00:00:58.963Z,6.10
2019-05-16T00:03:28.338Z,6.40
2019-05-16T00:05:58.414Z,6.00
2019-05-16T00:08:28.546Z,6.20
2019-05-16T00:10:58.722Z,6.20
2019-05-16T00:13:28.274Z,5.77
2019-05-16T00:15:58.716Z,6.33
2019-05-16T00:18:28.560Z,6.23
2019-05-16T00:20:58.599Z,6.17
2019-05-16T00:23:28.928Z,5.77
2019-05-16T00:25:58.817Z,6.87
2019-05-16T00:28:28.707Z,6.10
2019-05-16T00:30:59.125Z,6.37
2019-05-16T00:33:29.357Z,7.00
2019-05-16T00:36:03.491Z,7.37
2019-05-16T00:38:30.155Z,6.30
2019-05-16T00:40:59.786Z,7.20
2019-05-16T00:43:29.178Z,7.53
2019-05-16T00:45:59.042Z,7.00
2019-05-16T00:48:28.963Z,7.40
2019-05-16T00:50:58.630Z,7.57
2019-05-16T00:53:28.850Z,7.53
2019-05-16T00:56:00.261Z,7.17
2019-05-16T00:58:30.379Z,6.87
2019-05-16T01:00:59.811Z,7.10
2019-05-16T01:03:29.304Z,6.37
2019-05-16T01:05:58.811Z,6.77
2019-05-16T01:08:28.912Z,6.77
2019-05-16T01:10:58.787Z,6.37
2019-05-16T01:13:28.344Z,6.33
2019-05-16T01:15:58.075Z,6.33
2019-05-16T01:18:28.717Z,6.13
2019-05-16T01:20:58.684Z,6.90
2019-05-16T01:23:28.471Z,6.33
2019-05-16T01:25:58.805Z,6.30
2019-05-16T01:28:28.607Z,5.97
2019-05-16T01:30:58.227Z,6.10
2019-05-16T01:33:28.223Z,5.60
2019-05-16T01:35:58.628Z,5.83
2019-05-16T01:38:28.647Z,5.40
2019-05-16T01:40:58.435Z,5.93
2019-05-16T01:43:29.614Z,5.60
2019-05-16T01:45:59.115Z,5.27
2019-05-16T01:48:30.097Z,5.17
2019-05-16T01:50:59.515Z,4.87
2019-05-16T01:53:28.957Z,5.07
2019-05-16T01:55:58.458Z,4.83
2019-05-16T01:58:28.967Z,4.80
2019-05-16T02:01:11.397Z,4.60
2019-05-16T02:03:30.846Z,4.43
2019-05-16T02:06:00.290Z,4.60
2019-05-16T02:08:30.133Z,4.60
2019-05-16T02:10:59.554Z,4.20
2019-05-16T02:13:29.016Z,4.23
2019-05-16T02:15:59.216Z,4.40
2019-05-16T02:18:29.114Z,3.87
2019-05-16T02:21:01.356Z,4.07
2019-05-16T02:23:29.631Z,4.20
2019-05-16T02:25:59.105Z,3.77
2019-05-16T02:28:33.779Z,3.50
2019-05-16T02:31:01.275Z,3.57
2019-05-16T02:33:31.789Z,4.03
2019-05-16T02:36:01.930Z,3.40
2019-05-16T02:38:31.934Z,3.47
2019-05-16T02:41:03.274Z,3.40
2019-05-16T02:43:32.647Z,3.03
2019-05-16T02:46:02.236Z,3.17
2019-05-16T02:48:35.301Z,3.27
2019-05-16T02:51:02.801Z,2.97
2019-05-16T02:53:32.336Z,3.20
2019-05-16T02:56:01.953Z,3.20
2019-05-16T02:58:31.389Z,3.00
2019-05-16T03:01:01.911Z,2.70
2019-05-16T03:03:32.232Z,2.90
2019-05-16T03:06:02.824Z,3.07
2019-05-16T03:08:33.199Z,2.90
2019-05-16T03:11:02.974Z,2.90
2019-05-16T03:13:35.776Z,2.83
2019-05-16T03:16:11.405Z,3.47
2019-05-16T03:18:41.622Z,3.13
2019-05-16T03:21:13.756Z,2.90
2019-05-16T03:23:43.434Z,3.20
2019-05-16T03:26:14.484Z,2.90
2019-05-16T03:28:43.928Z,3.27
2019-05-16T03:31:15.462Z,2.77
2019-05-16T03:33:56.288Z,2.70
2019-05-16T03:36:16.213Z,3.20
2019-05-16T03:38:46.026Z,2.60
2019-05-16T03:41:15.479Z,2.50
2019-05-16T03:43:44.866Z,2.33
2019-05-16T03:46:14.313Z,2.63
2019-05-16T03:48:44.935Z,2.63
2019-05-16T03:51:14.370Z,2.10
2019-05-16T03:53:43.772Z,2.27
2019-05-16T03:56:13.231Z,2.30
2019-05-16T03:58:44.290Z,2.50
2019-05-16T04:01:13.725Z,2.40
2019-05-16T04:03:43.133Z,2.47
2019-05-16T04:06:12.570Z,2.40
2019-05-16T04:08:42.234Z,2.37
2019-05-16T04:11:11.982Z,2.50
2019-05-16T04:13:41.771Z,2.10
2019-05-16T04:16:11.971Z,2.40
2019-05-16T04:18:42.129Z,2.57
2019-05-16T04:21:12.157Z,2.60
2019-05-16T04:23:42.293Z,2.40
2019-05-16T04:26:11.900Z,2.40
2019-05-16T04:28:41.639Z,2.33
2019-05-16T04:31:11.277Z,2.33
2019-05-16T04:33:41.832Z,2.30
2019-05-16T04:36:11.451Z,2.50
2019-05-16T04:38:46.229Z,2.50
2019-05-16T04:41:12.211Z,2.47
2019-05-16T04:43:41.896Z,2.50
2019-05-16T04:46:11.955Z,2.30
2019-05-16T04:48:41.992Z,2.40
2019-05-16T04:51:11.532Z,2.37
2019-05-16T04:53:42.906Z,2.43
2019-05-16T04:56:12.307Z,2.10
2019-05-16T04:58:41.709Z,2.10
2019-05-16T05:01:11.553Z,2.30
2019-05-16T05:03:59.734Z,2.30
2019-05-16T05:06:12.204Z,2.17
2019-05-16T05:08:53.944Z,2.30
2019-05-16T05:11:12.872Z,2.13
2019-05-16T05:13:42.519Z,2.40
2019-05-16T05:16:11.949Z,2.50
2019-05-16T05:18:41.380Z,2.40
2019-05-16T05:21:11.586Z,2.10
2019-05-16T05:23:41.316Z,2.50
2019-05-16T05:26:11.001Z,2.17
2019-05-16T05:28:40.483Z,2.30
2019-05-16T05:31:10.792Z,2.30
2019-05-16T05:33:41.664Z,2.10
2019-05-16T05:36:12.347Z,1.90
2019-05-16T05:38:42.119Z,1.90
2019-05-16T05:41:11.556Z,2.30
2019-05-16T05:43:42.501Z,2.13
2019-05-16T05:46:12.066Z,2.20
2019-05-16T05:48:41.471Z,2.10
2019-05-16T05:51:11.464Z,2.10
2019-05-16T05:53:40.998Z,2.00
2019-05-16T05:56:11.353Z,1.97
2019-05-16T05:58:41.085Z,2.00
2019-05-16T06:01:11.272Z,1.70
2019-05-16T06:03:40.898Z,1.70
2019-05-16T06:06:10.739Z,1.90
2019-05-16T06:08:41.076Z,1.70
2019-05-16T06:11:10.672Z,1.70
2019-05-16T06:13:41.749Z,1.83
2019-05-16T06:16:11.241Z,1.80
2019-05-16T06:18:40.813Z,1.77
2019-05-16T06:21:11.449Z,1.77
2019-05-16T06:23:41.354Z,1.87
2019-05-16T06:26:12.181Z,2.10
2019-05-16T06:28:43.388Z,1.80
2019-05-16T06:31:14.392Z,1.57
2019-05-16T06:33:44.020Z,1.93
2019-05-16T06:36:13.709Z,1.70
2019-05-16T06:38:43.230Z,1.80
2019-05-16T06:41:12.716Z,2.07
2019-05-16T06:43:42.373Z,1.90
2019-05-16T06:46:11.803Z,2.07
2019-05-16T06:48:41.250Z,1.63
2019-05-16T06:51:10.919Z,1.80
2019-05-16T06:53:40.617Z,1.83
2019-05-16T06:56:10.544Z,2.10
2019-05-16T06:58:47.613Z,1.90
2019-05-16T07:01:11.337Z,2.10
2019-05-16T07:03:40.756Z,1.87
2019-05-16T07:06:29.715Z,2.10
2019-05-16T07:08:43.925Z,2.10
2019-05-16T07:11:13.320Z,1.73
2019-05-16T07:13:42.824Z,1.90
2019-05-16T07:16:12.598Z,1.50
2019-05-16T07:18:42.114Z,2.00
2019-05-16T07:21:11.663Z,1.80
2019-05-16T07:23:41.183Z,2.00
2019-05-16T07:26:10.661Z,2.10
2019-05-16T07:28:40.892Z,2.20
2019-05-16T07:31:15.700Z,2.10
2019-05-16T07:33:41.523Z,2.10
2019-05-16T07:36:10.931Z,1.73
2019-05-16T07:38:40.467Z,1.80
2019-05-16T07:41:11.083Z,2.20
2019-05-16T07:43:41.159Z,2.20
2019-05-16T07:46:11.237Z,1.70
2019-05-16T07:48:40.852Z,1.90
2019-05-16T07:51:10.624Z,1.70
2019-05-16T07:53:40.886Z,1.93
2019-05-16T07:56:10.724Z,2.07
2019-05-16T07:58:41.769Z,1.80
2019-05-16T08:01:12.487Z,2.00
2019-05-16T08:03:44.181Z,1.90
2019-05-16T08:06:13.860Z,2.07
2019-05-16T08:08:43.763Z,2.10
2019-05-16T08:11:14.892Z,2.20
2019-05-16T08:13:47.276Z,1.90
2019-05-16T08:16:15.575Z,2.10
2019-05-16T08:18:45.375Z,1.90
2019-05-16T08:21:16.943Z,1.90
2019-05-16T08:23:46.103Z,2.00
2019-05-16T08:26:15.578Z,1.70
2019-05-16T08:28:45.072Z,1.80
2019-05-16T08:31:14.590Z,1.60
2019-05-16T08:33:44.064Z,1.90
2019-05-16T08:36:13.605Z,1.90
2019-05-16T08:38:43.503Z,1.87
2019-05-16T08:41:17.125Z,1.90
2019-05-16T08:43:44.534Z,1.93
2019-05-16T08:46:14.110Z,1.87
2019-05-16T08:48:43.636Z,2.00
2019-05-16T08:51:13.598Z,1.80
2019-05-16T08:53:43.635Z,1.70
2019-05-16T08:56:13.438Z,1.70
2019-05-16T08:58:42.969Z,1.60
2019-05-16T09:01:15.546Z,1.73
2019-05-16T09:03:45.130Z,2.00
2019-05-16T09:06:14.634Z,1.93
2019-05-16T09:08:44.847Z,2.30
2019-05-16T09:11:29.238Z,2.30
2019-05-16T09:13:47.718Z,2.17
2019-05-16T09:16:18.302Z,2.50
2019-05-16T09:18:50.706Z,2.43
2019-05-16T09:21:19.231Z,3.10
2019-05-16T09:23:48.643Z,2.57
2019-05-16T09:26:19.871Z,3.50
2019-05-16T09:28:49.455Z,3.10
2019-05-16T09:31:18.903Z,3.07
2019-05-16T09:33:48.390Z,3.03
2019-05-16T09:36:17.852Z,2.63
2019-05-16T09:38:48.575Z,2.97
2019-05-16T09:41:20.040Z,3.37
2019-05-16T09:43:49.526Z,3.50
2019-05-16T09:46:19.070Z,3.20
2019-05-16T09:48:48.667Z,3.10
2019-05-16T09:51:21.139Z,3.67
2019-05-16T09:53:49.232Z,2.97
2019-05-16T09:56:18.673Z,3.13
2019-05-16T09:58:48.072Z,3.20
2019-05-16T10:01:17.772Z,3.30
2019-05-16T10:03:47.972Z,3.30
2019-05-16T10:06:19.166Z,3.30
2019-05-16T10:08:48.856Z,3.13
2019-05-16T10:11:18.449Z,2.70
2019-05-16T10:13:47.901Z,3.30
2019-05-16T10:16:17.384Z,3.03
2019-05-16T10:18:47.626Z,3.20
2019-05-16T10:21:20.415Z,3.03
2019-05-16T10:23:48.408Z,2.57
2019-05-16T10:26:19.551Z,3.00
2019-05-16T10:28:49.266Z,3.70
2019-05-16T10:31:18.766Z,3.10
2019-05-16T10:33:48.249Z,3.13
2019-05-16T10:36:21.443Z,3.00
2019-05-16T10:38:49.188Z,3.10
2019-05-16T10:41:18.968Z,3.30
2019-05-16T10:43:48.484Z,3.00
2019-05-16T10:46:17.976Z,3.10
2019-05-16T10:48:47.425Z,3.20
2019-05-16T10:51:17.187Z,3.13
2019-05-16T10:54:13.093Z,2.90
2019-05-16T10:56:18.110Z,3.70
2019-05-16T10:59:14.716Z,3.50
2019-05-16T11:01:26.506Z,3.47
2019-05-16T11:03:49.798Z,3.37
2019-05-16T11:06:25.690Z,3.57
2019-05-16T11:08:50.417Z,3.50
2019-05-16T11:11:20.156Z,4.30
2019-05-16T11:13:51.239Z,3.70
2019-05-16T11:16:22.266Z,3.97
2019-05-16T11:18:51.693Z,4.30
2019-05-16T11:21:21.111Z,3.97
2019-05-16T11:23:50.560Z,4.37
2019-05-16T11:26:20.511Z,4.27
2019-05-16T11:28:49.975Z,4.80
2019-05-16T11:31:19.446Z,4.20
2019-05-16T11:33:48.872Z,4.70
2019-05-16T11:36:18.451Z,4.93
2019-05-16T11:38:47.986Z,4.50
2019-05-16T11:41:17.626Z,4.50
2019-05-16T11:43:48.587Z,4.43
2019-05-16T11:46:18.073Z,4.60
2019-05-16T11:48:48.991Z,4.80
2019-05-16T11:51:18.919Z,4.90
2019-05-16T11:53:48.364Z,4.67
2019-05-16T11:56:17.819Z,4.20
2019-05-16T11:58:47.423Z,4.17
2019-05-16T12:01:16.934Z,3.87
2019-05-16T12:03:47.008Z,4.10
2019-05-16T12:06:17.153Z,4.17
2019-05-16T12:08:49.858Z,4.00
2019-05-16T12:11:19.344Z,4.13
2019-05-16T12:13:48.766Z,5.10
2019-05-16T12:16:18.968Z,5.17
2019-05-16T12:18:48.533Z,6.13
2019-05-16T12:21:18.066Z,6.40
2019-05-16T12:23:47.481Z,9.77
2019-05-16T12:26:17.724Z,6.87
2019-05-16T12:28:47.304Z,6.43
2019-05-16T12:31:17.465Z,6.50
2019-05-16T12:33:47.840Z,6.97
2019-05-16T12:36:17.767Z,7.00
2019-05-16T12:38:47.208Z,6.57
2019-05-16T12:41:16.629Z,5.77
2019-05-16T12:43:53.099Z,5.67
2019-05-16T12:46:17.428Z,6.40
2019-05-16T12:48:47.517Z,6.40
2019-05-16T12:51:17.316Z,6.27
2019-05-16T12:53:47.846Z,6.70
2019-05-16T12:56:17.764Z,6.63
2019-05-16T12:58:50.424Z,6.67
2019-05-16T13:01:20.635Z,6.67
2019-05-16T13:03:51.275Z,6.47
2019-05-16T13:06:22.234Z,6.13
2019-05-16T13:08:53.677Z,5.43
2019-05-16T13:11:23.345Z,5.07
2019-05-16T13:14:03.285Z,5.10
2019-05-16T13:16:23.881Z,5.07
2019-05-16T13:18:53.337Z,4.40
2019-05-16T13:21:23.168Z,4.47
2019-05-16T13:23:52.602Z,4.20
2019-05-16T13:26:22.148Z,4.20
2019-05-16T13:28:51.664Z,3.60
2019-05-16T13:31:21.073Z,3.57
2019-05-16T13:33:50.516Z,2.90
2019-05-16T13:36:20.084Z,2.83
2019-05-16T13:38:49.513Z,2.40
2019-05-16T13:41:19.099Z,2.20
2019-05-16T13:43:48.627Z,1.97
2019-05-16T13:46:18.113Z,2.20
2019-05-16T13:48:47.574Z,2.27
2019-05-16T13:51:19.080Z,2.00
2019-05-16T13:53:48.101Z,2.60
2019-05-16T13:56:17.945Z,1.77
2019-05-16T13:58:47.618Z,2.07
2019-05-16T14:01:17.357Z,2.20
2019-05-16T14:03:48.298Z,2.60
2019-05-16T14:06:18.521Z,2.50
2019-05-16T14:08:48.152Z,2.47
2019-05-16T14:11:17.857Z,2.40
2019-05-16T14:13:47.265Z,2.53
2019-05-16T14:16:17.948Z,2.60
2019-05-16T14:18:47.689Z,2.60
2019-05-16T14:21:18.109Z,2.73
2019-05-16T14:23:53.437Z,2.73
2019-05-16T14:26:19.559Z,2.63
2019-05-16T14:28:49.314Z,2.47
2019-05-16T14:31:18.957Z,2.53
2019-05-16T14:33:48.401Z,2.60
2019-05-16T14:36:17.838Z,2.90
2019-05-16T14:38:47.270Z,2.70
2019-05-16T14:41:17.343Z,3.03
2019-05-16T14:43:47.276Z,3.27
2019-05-16T14:46:18.423Z,3.40
2019-05-16T14:48:48.180Z,3.57
2019-05-16T14:51:18.159Z,3.97
2019-05-16T14:53:47.718Z,4.13
2019-05-16T14:56:17.221Z,3.63
2019-05-16T14:58:48.573Z,4.40
2019-05-16T15:01:17.901Z,4.10
2019-05-16T15:03:49.033Z,4.30
2019-05-16T15:06:19.987Z,4.27
2019-05-16T15:08:49.449Z,4.53
2019-05-16T15:11:19.809Z,4.30
2019-05-16T15:13:50.767Z,3.70
2019-05-16T15:16:20.239Z,4.27
2019-05-16T15:18:49.748Z,3.40
2019-05-16T15:21:19.146Z,3.90
2019-05-16T15:23:48.585Z,3.97
2019-05-16T15:26:18.428Z,3.67
2019-05-16T15:28:51.035Z,3.50
2019-05-16T15:31:19.158Z,3.50
2019-05-16T15:33:49.430Z,3.00
2019-05-16T15:36:18.937Z,3.70
2019-05-16T15:38:48.464Z,3.60
2019-05-16T15:41:17.889Z,3.43
2019-05-16T15:43:47.333Z,3.60
2019-05-16T15:46:17.436Z,3.50
2019-05-16T15:48:48.875Z,3.73
2019-05-16T15:51:21.176Z,3.50
2019-05-16T15:53:50.474Z,3.63
2019-05-16T15:56:19.902Z,4.10
2019-05-16T15:58:49.339Z,4.00
2019-05-16T16:01:18.839Z,3.93
2019-05-16T16:03:48.274Z,4.03
2019-05-16T16:06:17.966Z,3.70
2019-05-16T16:08:47.829Z,4.17
2019-05-16T16:11:17.414Z,3.80
2019-05-16T16:13:48.406Z,3.53
2019-05-16T16:16:18.194Z,3.40
2019-05-16T16:18:47.704Z,3.60
2019-05-16T16:21:17.110Z,3.30
2019-05-16T16:23:47.370Z,3.67
2019-05-16T16:26:17.916Z,3.63
2019-05-16T16:28:47.637Z,3.80
2019-05-16T16:31:17.108Z,3.70
2019-05-16T16:33:46.581Z,3.10
2019-05-16T16:36:17.133Z,3.30
2019-05-16T16:38:47.715Z,3.70
2019-05-16T16:41:17.186Z,3.47
2019-05-16T16:43:47.735Z,3.30
2019-05-16T16:46:17.333Z,3.70
2019-05-16T16:48:47.325Z,3.73
2019-05-16T16:51:17.705Z,3.73
2019-05-16T16:53:47.743Z,3.43
2019-05-16T16:56:17.203Z,3.33
2019-05-16T16:58:46.943Z,3.63
2019-05-16T17:01:17.369Z,3.37
2019-05-16T17:03:47.189Z,3.70
2019-05-16T17:06:17.659Z,3.57
2019-05-16T17:08:47.669Z,3.27
2019-05-16T17:11:17.027Z,3.40
2019-05-16T17:13:47.234Z,3.20
2019-05-16T17:16:23.018Z,2.90
2019-05-16T17:18:48.168Z,3.43
2019-05-16T17:21:17.644Z,3.17
2019-05-16T17:23:47.279Z,3.30
2019-05-16T17:26:16.813Z,2.97
2019-05-16T17:28:46.829Z,2.70
2019-05-16T17:31:16.960Z,3.10
2019-05-16T17:33:48.503Z,3.13
2019-05-16T17:36:17.909Z,3.20
2019-05-16T17:38:47.362Z,3.10
2019-05-16T17:41:16.974Z,3.00
2019-05-16T17:43:46.975Z,3.00
2019-05-16T17:46:18.126Z,3.07
2019-05-16T17:48:47.579Z,3.27
2019-05-16T17:51:17.006Z,3.20
2019-05-16T17:53:46.492Z,3.17
2019-05-16T17:56:17.074Z,3.03
2019-05-16T17:58:46.831Z,3.10
2019-05-16T18:01:17.119Z,3.40
2019-05-16T18:03:46.865Z,3.27
2019-05-16T18:06:16.954Z,3.27
2019-05-16T18:08:46.915Z,3.00
2019-05-16T18:11:17.772Z,3.10
2019-05-16T18:13:47.483Z,3.00
2019-05-16T18:16:16.963Z,3.10
2019-05-16T18:18:46.972Z,2.93
2019-05-16T18:21:17.000Z,3.43
2019-05-16T18:23:47.234Z,3.60
2019-05-16T18:26:17.343Z,3.50
2019-05-16T18:28:46.938Z,3.43
2019-05-16T18:31:17.209Z,2.93
2019-05-16T18:33:47.053Z,3.07
2019-05-16T18:36:16.984Z,3.20
2019-05-16T18:38:49.504Z,3.17
2019-05-16T18:41:19.055Z,3.60
2019-05-16T18:43:48.579Z,3.73
2019-05-16T18:46:17.985Z,3.30
2019-05-16T18:48:47.444Z,3.27
2019-05-16T18:51:16.994Z,3.20
2019-05-16T18:53:46.890Z,2.67
2019-05-16T18:56:16.764Z,2.80
2019-05-16T18:58:46.870Z,3.00
2019-05-16T19:01:17.556Z,3.10
2019-05-16T19:03:49.052Z,2.97
2019-05-16T19:06:18.634Z,3.23
2019-05-16T19:08:48.146Z,2.63
2019-05-16T19:11:17.650Z,3.40
2019-05-16T19:13:47.575Z,3.13
2019-05-16T19:16:17.161Z,3.30
2019-05-16T19:18:48.146Z,3.40
2019-05-16T19:21:17.775Z,3.00
2019-05-16T19:23:47.250Z,3.40
2019-05-16T19:26:16.975Z,3.10
2019-05-16T19:28:46.793Z,3.47
2019-05-16T19:31:17.200Z,3.20
2019-05-16T19:33:48.772Z,3.17
2019-05-16T19:36:17.854Z,3.10
2019-05-16T19:38:47.270Z,3.30
2019-05-16T19:41:16.817Z,3.10
2019-05-16T19:43:46.724Z,3.03
2019-05-16T19:46:16.205Z,3.10
2019-05-16T19:48:46.451Z,3.70
2019-05-16T19:51:16.421Z,3.37
2019-05-16T19:53:47.043Z,3.50
2019-05-16T19:56:17.794Z,3.90
2019-05-16T19:58:47.489Z,3.90
2019-05-16T20:01:17.202Z,3.93
2019-05-16T20:03:47.145Z,4.17
2019-05-16T20:06:18.300Z,3.80
2019-05-16T20:08:47.783Z,4.03
2019-05-16T20:11:17.223Z,4.67
2019-05-16T20:13:47.415Z,4.53
2019-05-16T20:16:18.438Z,4.00
2019-05-16T20:18:48.051Z,3.90
2019-05-16T20:21:18.545Z,3.77
2019-05-16T20:23:48.146Z,3.60
2019-05-16T20:26:17.590Z,3.43
2019-05-16T20:28:47.543Z,3.20
2019-05-16T20:31:17.239Z,2.80
2019-05-16T20:33:46.959Z,3.20
2019-05-16T20:36:17.324Z,3.57
2019-05-16T20:38:46.901Z,3.10
2019-05-16T20:41:17.084Z,3.33
2019-05-16T20:43:47.502Z,2.97
2019-05-16T20:46:17.224Z,2.93
2019-05-16T20:48:49.809Z,2.80
2019-05-16T20:51:20.260Z,2.73
2019-05-16T20:53:49.999Z,3.23
2019-05-16T20:56:19.618Z,3.43
2019-05-16T20:58:49.028Z,3.13
2019-05-16T21:01:18.488Z,2.90
2019-05-16T21:03:47.962Z,3.20
2019-05-16T21:06:17.439Z,3.27
2019-05-16T21:08:49.523Z,3.50
2019-05-16T21:11:18.582Z,3.37
2019-05-16T21:13:49.083Z,3.53
2019-05-16T21:16:18.761Z,3.17
2019-05-16T21:18:48.428Z,3.17
2019-05-16T21:21:19.403Z,3.30
2019-05-16T21:23:48.923Z,3.53
2019-05-16T21:26:18.507Z,3.30
2019-05-16T21:28:47.953Z,3.67
2019-05-16T21:31:19.451Z,3.60
2019-05-16T21:33:48.548Z,3.73
2019-05-16T21:36:19.110Z,3.60
2019-05-16T21:38:48.800Z,3.40
2019-05-16T21:41:18.210Z,3.63
2019-05-16T21:43:47.665Z,4.00
2019-05-16T21:46:20.192Z,3.70
2019-05-16T21:48:49.732Z,4.27
2019-05-16T21:51:19.778Z,3.70
2019-05-16T21:53:49.365Z,3.93
2019-05-16T21:56:20.370Z,3.60
2019-05-16T21:58:49.892Z,4.10
2019-05-16T22:01:22.419Z,3.87
2019-05-16T22:03:52.376Z,4.60
2019-05-16T22:06:21.792Z,4.67
2019-05-16T22:08:51.251Z,4.77
2019-05-16T22:11:20.855Z,5.30
2019-05-16T22:13:50.329Z,5.80
2019-05-16T22:16:19.744Z,5.50
2019-05-16T22:18:49.209Z,6.07
2019-05-16T22:21:18.764Z,5.60
2019-05-16T22:23:48.206Z,5.60
2019-05-16T22:26:17.765Z,5.40
2019-05-16T22:28:49.528Z,6.37
2019-05-16T22:31:18.488Z,7.20
2019-05-16T22:33:48.018Z,6.67
2019-05-16T22:36:17.487Z,7.10
2019-05-16T22:38:46.953Z,7.27
2019-05-16T22:41:17.244Z,7.57
2019-05-16T22:43:47.003Z,7.37
2019-05-16T22:46:17.768Z,8.10
2019-05-16T22:48:47.899Z,7.43
2019-05-16T22:51:17.307Z,7.50
2019-05-16T22:53:46.838Z,7.43
2019-05-16T22:56:17.358Z,6.93
2019-05-16T22:58:47.429Z,8.10
2019-05-16T23:01:17.638Z,8.00
2019-05-16T23:03:47.236Z,7.50
2019-05-16T23:06:18.376Z,7.20
2019-05-16T23:08:47.857Z,7.43
2019-05-16T23:11:17.261Z,7.03
2019-05-16T23:13:46.709Z,7.80
2019-05-16T23:16:17.198Z,7.07
2019-05-16T23:18:46.822Z,8.10
2019-05-16T23:21:17.049Z,7.37
2019-05-16T23:23:47.695Z,7.30
2019-05-16T23:26:17.057Z,7.50
2019-05-16T23:28:47.182Z,7.90
2019-05-16T23:31:16.808Z,7.50
2019-05-16T23:33:47.033Z,7.93
2019-05-16T23:36:17.492Z,8.57
2019-05-16T23:38:47.525Z,8.07
2019-05-16T23:41:17.329Z,7.80
2019-05-16T23:43:47.381Z,8.33
2019-05-16T23:46:16.999Z,7.90
2019-05-16T23:48:47.202Z,8.53
2019-05-16T23:51:17.076Z,8.57
2019-05-16T23:53:46.651Z,8.90
2019-05-16T23:56:16.690Z,8.93
2019-05-16T23:58:47.714Z,10.10
